Time;durP1;ratioP1;P1;durP2;ratioP2;P2;SDS_P1;SDS_P2;PMS_P1;PMS_P2;Temp;Humidity;BMP_temperature;BMP_pressure;BME280_temperature;BME280_humidity;BME280_pressure;Samples;Min_cycle;Max_cycle;Signal;HPM_P1;HPM_P2
2024/01/29 00:02:09;;;;;;;2.73;2.53;;;;;;;4.52;100.00;102592.44;6199910;28;20237;-69
2024/01/29 00:05:30;;;;;;;3.50;3.27;;;;;;;4.57;100.00;102598.47;6202490;28;20229;-70
2024/01/29 00:08:52;;;;;;;3.80;3.40;;;;;;;4.50;100.00;102587.16;6212739;28;20237;-70
2024/01/29 00:12:13;;;;;;;4.53;3.93;;;;;;;4.44;100.00;102598.06;6197039;28;20244;-70
2024/01/29 00:15:35;;;;;;;3.90;3.33;;;;;;;4.40;100.00;102592.91;6203144;28;20819;-70
2024/01/29 00:18:56;;;;;;;4.00;3.33;;;;;;;4.40;100.00;102584.88;6209160;28;20315;-70
2024/01/29 00:22:17;;;;;;;3.97;3.50;;;;;;;4.45;100.00;102582.91;6201961;28;20229;-70
2024/01/29 00:25:38;;;;;;;3.73;3.07;;;;;;;4.44;100.00;102589.19;6203963;28;20224;-70
2024/01/29 00:28:59;;;;;;;3.93;2.73;;;;;;;4.47;100.00;102584.59;6206825;28;20236;-70
2024/01/29 00:32:21;;;;;;;4.30;2.90;;;;;;;4.50;100.00;102580.94;6196357;28;20229;-70
2024/01/29 00:35:42;;;;;;;3.30;2.80;;;;;;;4.67;100.00;102576.72;6199332;28;20623;-70
2024/01/29 00:39:06;;;;;;;7.37;3.57;;;;;;;4.65;100.00;102583.91;6219650;28;20303;-70
2024/01/29 00:42:28;;;;;;;6.77;3.53;;;;;;;4.66;100.00;102580.34;6207109;28;20236;-70
2024/01/29 00:45:48;;;;;;;5.43;2.70;;;;;;;4.56;100.00;102562.91;6188290;28;20224;-70
2024/01/29 00:49:11;;;;;;;4.23;3.83;;;;;;;4.66;100.00;102553.63;6209551;28;20595;-70
2024/01/29 00:52:33;;;;;;;3.20;2.90;;;;;;;4.71;100.00;102551.63;6200743;28;20280;-70
2024/01/29 00:55:54;;;;;;;3.57;3.10;;;;;;;4.67;100.00;102563.38;6209619;28;20336;-71
2024/01/29 00:59:15;;;;;;;6.27;4.17;;;;;;;4.73;100.00;102549.81;6211418;28;20233;-69
2024/01/29 01:02:36;;;;;;;3.50;3.30;;;;;;;4.73;100.00;102548.94;6186077;28;20229;-70
2024/01/29 01:05:58;;;;;;;3.90;2.73;;;;;;;4.75;100.00;102545.28;6187376;28;20229;-69
2024/01/29 01:09:19;;;;;;;3.43;3.13;;;;;;;4.71;100.00;102548.13;6192841;28;20233;-69
2024/01/29 01:12:40;;;;;;;7.10;3.13;;;;;;;4.77;100.00;102548.75;6194207;28;20320;-69
2024/01/29 01:16:01;;;;;;;3.03;2.77;;;;;;;4.77;100.00;102537.19;6182164;28;20261;-69
2024/01/29 01:19:22;;;;;;;3.30;2.73;;;;;;;4.78;100.00;102539.81;6202533;28;20235;-69
2024/01/29 01:22:44;;;;;;;4.57;3.27;;;;;;;4.82;100.00;102551.22;6189505;28;20236;-69
2024/01/29 01:26:06;;;;;;;3.50;2.73;;;;;;;4.88;100.00;102541.19;6199812;28;20695;-69
2024/01/29 01:29:27;;;;;;;2.93;2.63;;;;;;;4.83;100.00;102545.84;6203306;28;20262;-70
2024/01/29 01:32:48;;;;;;;5.70;2.57;;;;;;;4.77;100.00;102540.75;6200081;28;20217;-70
2024/01/29 01:36:09;;;;;;;3.50;3.13;;;;;;;4.81;100.00;102538.81;6199762;28;20245;-70
2024/01/29 01:39:31;;;;;;;4.20;2.60;;;;;;;4.75;100.00;102537.25;6210519;28;20236;-70
2024/01/29 01:42:53;;;;;;;5.57;2.67;;;;;;;4.72;100.00;102537.38;6201986;28;20750;-70
2024/01/29 01:46:21;;;;;;;2.93;2.67;;;;;;;4.71;100.00;102543.63;6193590;28;20485;-70
2024/01/29 01:49:42;;;;;;;2.40;2.20;;;;;;;4.80;100.00;102545.94;6202389;28;20324;-69
2024/01/29 01:53:03;;;;;;;4.13;2.27;;;;;;;4.76;100.00;102552.34;6191134;28;20249;-70
2024/01/29 01:56:26;;;;;;;2.43;2.33;;;;;;;4.81;100.00;102552.19;6201703;28;20233;-69
2024/01/29 01:59:47;;;;;;;3.40;2.70;;;;;;;4.73;100.00;102549.81;6202612;28;20241;-69
2024/01/29 02:03:08;;;;;;;4.80;2.50;;;;;;;4.75;100.00;102560.44;6191921;28;20223;-69
2024/01/29 02:06:29;;;;;;;3.37;2.20;;;;;;;4.59;100.00;102564.59;6195867;28;20240;-68
2024/01/29 02:09:50;;;;;;;4.03;3.10;;;;;;;4.65;100.00;102575.91;6203813;28;21059;-69
2024/01/29 02:13:13;;;;;;;3.20;2.90;;;;;;;4.68;100.00;102573.13;6206883;28;20234;-69
2024/01/29 02:16:34;;;;;;;4.30;2.60;;;;;;;4.71;100.00;102562.31;6187455;28;20236;-68
2024/01/29 02:19:55;;;;;;;2.00;1.80;;;;;;;4.62;100.00;102569.81;6204886;28;20225;-69
2024/01/29 02:23:17;;;;;;;3.00;2.67;;;;;;;4.62;100.00;102561.81;6201491;28;20237;-69
2024/01/29 02:26:46;;;;;;;4.20;3.13;;;;;;;4.43;100.00;102558.94;6199213;28;20229;-69
2024/01/29 02:30:07;;;;;;;4.37;2.90;;;;;;;4.34;100.00;102558.41;6192970;28;20235;-68
2024/01/29 02:33:28;;;;;;;2.57;2.37;;;;;;;4.27;100.00;102551.53;6202590;28;20237;-69
2024/01/29 02:36:49;;;;;;;4.07;2.87;;;;;;;4.30;100.00;102548.78;6182448;28;20233;-69
2024/01/29 02:40:11;;;;;;;2.53;2.30;;;;;;;4.32;100.00;102558.44;6193493;28;20225;-70
2024/01/29 02:43:32;;;;;;;3.10;2.77;;;;;;;4.47;100.00;102568.56;6195382;28;20614;-70
2024/01/29 02:46:53;;;;;;;4.27;2.80;;;;;;;4.50;100.00;102571.16;6191889;28;20228;-69
2024/01/29 02:50:14;;;;;;;4.60;2.63;;;;;;;4.43;100.00;102569.63;6150857;28;20229;-70
2024/01/29 02:53:34;;;;;;;2.40;2.20;;;;;;;4.43;100.00;102572.28;6198494;28;20236;-69
2024/01/29 02:56:57;;;;;;;2.80;2.53;;;;;;;4.43;100.00;102574.06;6192559;28;20241;-69
2024/01/29 03:00:18;;;;;;;2.90;2.67;;;;;;;4.37;100.00;102572.50;6167153;28;20221;-69
2024/01/29 03:03:39;;;;;;;2.87;2.43;;;;;;;4.29;100.00;102579.94;6203969;28;20319;-69
2024/01/29 03:07:00;;;;;;;3.20;2.90;;;;;;;4.22;100.00;102572.16;6196613;28;20240;-69
2024/01/29 03:10:21;;;;;;;4.27;2.73;;;;;;;4.21;100.00;102571.31;6193067;28;20218;-69
2024/01/29 03:13:44;;;;;;;2.87;2.67;;;;;;;4.19;100.00;102570.50;6204722;28;20511;-69
2024/01/29 03:17:04;;;;;;;3.47;2.87;;;;;;;4.22;100.00;102569.50;6189330;28;20232;-69
2024/01/29 03:20:26;;;;;;;4.73;2.47;;;;;;;4.27;100.00;102571.09;6205329;28;20229;-69
2024/01/29 03:23:47;;;;;;;2.53;2.30;;;;;;;4.20;100.00;102566.91;6204259;28;20225;-69
2024/01/29 03:27:08;;;;;;;4.50;4.10;;;;;;;4.01;100.00;102572.00;6200532;28;20314;-69
2024/01/29 03:30:30;;;;;;;3.00;2.67;;;;;;;4.05;100.00;102559.41;6194481;28;20229;-69
2024/01/29 03:33:50;;;;;;;3.97;2.60;;;;;;;3.99;100.00;102563.19;6195446;28;20575;-68
2024/01/29 03:37:11;;;;;;;5.83;2.67;;;;;;;3.97;100.00;102564.16;6192418;28;20233;-69
2024/01/29 03:40:32;;;;;;;4.63;3.67;;;;;;;3.94;100.00;102564.28;6197855;28;20240;-68
2024/01/29 03:43:53;;;;;;;2.67;2.37;;;;;;;3.88;100.00;102562.69;6211537;28;20229;-69
2024/01/29 03:47:15;;;;;;;3.00;2.73;;;;;;;3.87;100.00;102555.63;6205347;28;20323;-69
2024/01/29 03:50:36;;;;;;;2.93;2.43;;;;;;;3.84;100.00;102555.69;6198610;28;20311;-68
2024/01/29 03:53:57;;;;;;;3.27;2.67;;;;;;;3.85;100.00;102553.91;6207808;28;20233;-69
2024/01/29 03:57:18;;;;;;;3.83;3.30;;;;;;;3.91;100.00;102548.38;6195068;28;20611;-69
2024/01/29 04:00:39;;;;;;;2.50;2.30;;;;;;;3.88;100.00;102543.16;6193324;28;20229;-69
2024/01/29 04:04:02;;;;;;;2.43;2.23;;;;;;;3.97;100.00;102535.69;6202604;28;20651;-69
2024/01/29 04:07:23;;;;;;;8.77;6.37;;;;;;;3.97;100.00;102542.81;6191524;28;20611;-68
2024/01/29 04:10:44;;;;;;;3.23;2.67;;;;;;;3.92;100.00;102542.13;6188780;28;20230;-68
2024/01/29 04:14:05;;;;;;;4.27;2.60;;;;;;;3.95;100.00;102528.66;6196711;28;20233;-68
2024/01/29 04:17:26;;;;;;;2.73;2.50;;;;;;;3.92;100.00;102531.44;6185785;28;20228;-69
2024/01/29 04:20:49;;;;;;;6.10;2.57;;;;;;;3.89;100.00;102537.75;6168112;28;20232;-69
2024/01/29 04:24:11;;;;;;;3.57;2.60;;;;;;;3.92;100.00;102532.28;6197084;28;20237;-69
2024/01/29 04:27:32;;;;;;;3.43;2.80;;;;;;;4.05;100.00;102541.63;6188601;28;20229;-69
2024/01/29 04:30:52;;;;;;;2.90;2.07;;;;;;;4.00;100.00;102529.38;6188537;28;20233;-69
2024/01/29 04:34:13;;;;;;;3.70;2.53;;;;;;;3.88;100.00;102517.31;6193918;28;20580;-69
2024/01/29 04:37:36;;;;;;;3.10;2.90;;;;;;;3.90;100.00;102519.97;6189556;28;20244;-70
2024/01/29 04:40:56;;;;;;;2.97;2.77;;;;;;;3.91;100.00;102508.34;6192944;28;20225;-68
2024/01/29 04:44:17;;;;;;;4.20;3.13;;;;;;;3.86;100.00;102513.84;6196912;28;20979;-69
2024/01/29 04:47:38;;;;;;;4.50;2.90;;;;;;;3.80;100.00;102522.06;6186213;28;20305;-69
2024/01/29 04:50:59;;;;;;;5.23;3.47;;;;;;;3.76;100.00;102520.44;6186675;28;20291;-69
2024/01/29 04:54:21;;;;;;;7.07;4.17;;;;;;;3.79;100.00;102524.78;6198884;28;20224;-69
2024/01/29 04:57:42;;;;;;;4.67;2.93;;;;;;;3.77;100.00;102524.84;6193075;28;20474;-69
2024/01/29 05:01:03;;;;;;;5.63;3.10;;;;;;;3.83;100.00;102529.97;6183300;28;20319;-68
2024/01/29 05:04:24;;;;;;;3.93;3.40;;;;;;;3.77;100.00;102526.63;6193964;28;20537;-69
2024/01/29 05:07:45;;;;;;;5.00;3.80;;;;;;;3.83;100.00;102529.09;6188656;28;20244;-70
2024/01/29 05:11:07;;;;;;;6.07;4.90;;;;;;;3.80;100.00;102524.72;6176647;28;23333;-69
2024/01/29 05:14:28;;;;;;;11.47;3.63;;;;;;;3.75;100.00;102524.03;6197375;28;20233;-68
2024/01/29 05:17:49;;;;;;;5.77;3.13;;;;;;;3.86;100.00;102524.50;6186195;28;21197;-68
2024/01/29 05:21:12;;;;;;;5.50;4.20;;;;;;;3.78;100.00;102523.03;6186809;28;20242;-69
2024/01/29 05:24:33;;;;;;;6.30;3.30;;;;;;;3.70;100.00;102533.09;6199300;28;20797;-69
2024/01/29 05:27:55;;;;;;;8.37;3.40;;;;;;;3.69;100.00;102529.53;6188406;28;20237;-70
2024/01/29 05:31:16;;;;;;;5.30;3.60;;;;;;;3.69;100.00;102529.53;6176151;28;20216;-70
2024/01/29 05:34:38;;;;;;;7.53;3.63;;;;;;;3.69;100.00;102532.22;6197990;28;20234;-69
2024/01/29 05:37:59;;;;;;;3.87;3.57;;;;;;;3.66;100.00;102535.00;6189136;28;20237;-69
2024/01/29 05:41:20;;;;;;;3.53;3.23;;;;;;;3.59;100.00;102524.59;6199498;28;20256;-68
2024/01/29 05:44:42;;;;;;;6.20;2.50;;;;;;;3.58;100.00;102523.72;6193776;28;20316;-70
2024/01/29 05:48:07;;;;;;;6.73;2.13;;;;;;;3.54;100.00;102522.09;6197544;28;20606;-69
2024/01/29 05:51:28;;;;;;;5.77;2.83;;;;;;;3.57;100.00;102521.97;6198836;28;20221;-68
2024/01/29 05:54:49;;;;;;;3.60;3.03;;;;;;;3.53;100.00;102514.13;6204332;28;20225;-69
2024/01/29 05:58:10;;;;;;;2.90;2.70;;;;;;;3.57;100.00;102513.09;6198717;28;20233;-69
2024/01/29 06:01:32;;;;;;;3.83;2.60;;;;;;;3.59;100.00;102513.94;6181428;28;22477;-69
2024/01/29 06:04:53;;;;;;;4.80;2.40;;;;;;;3.52;100.00;102507.94;6191618;28;20260;-70
2024/01/29 06:08:14;;;;;;;6.27;2.87;;;;;;;3.52;100.00;102507.94;6198474;28;20233;-68
2024/01/29 06:11:35;;;;;;;4.53;3.17;;;;;;;3.49;100.00;102512.47;6195937;28;20256;-69
2024/01/29 06:14:56;;;;;;;4.63;3.07;;;;;;;3.46;100.00;102502.81;6195994;28;20252;-68
2024/01/29 06:18:18;;;;;;;10.97;3.87;;;;;;;3.44;100.00;102499.34;6188313;28;20655;-69
2024/01/29 06:21:39;;;;;;;4.37;2.40;;;;;;;3.47;100.00;102501.00;6185067;28;20233;-70
2024/01/29 06:25:00;;;;;;;5.77;3.37;;;;;;;3.51;100.00;102500.84;6193655;28;20682;-69
2024/01/29 06:28:21;;;;;;;5.00;3.20;;;;;;;3.55;100.00;102491.81;6188194;28;20245;-69
2024/01/29 06:31:42;;;;;;;4.47;3.23;;;;;;;3.50;100.00;102491.13;6184527;28;20574;-68
2024/01/29 06:35:05;;;;;;;3.70;2.73;;;;;;;3.48;100.00;102487.63;6189041;28;21932;-69
2024/01/29 06:38:26;;;;;;;4.43;2.57;;;;;;;3.46;100.00;102493.94;6189876;28;20332;-67
2024/01/29 06:41:47;;;;;;;4.77;2.97;;;;;;;3.48;100.00;102487.63;6184661;28;20237;-68
2024/01/29 06:45:08;;;;;;;7.03;3.03;;;;;;;3.46;100.00;102493.94;6175686;28;20237;-67
2024/01/29 06:48:36;;;;;;;3.07;2.30;;;;;;;3.43;100.00;102497.56;6204490;28;20998;-68
2024/01/29 06:51:59;;;;;;;6.73;2.90;;;;;;;3.50;100.00;102499.13;6194407;28;20582;-68
2024/01/29 06:55:20;;;;;;;4.23;2.50;;;;;;;3.45;100.00;102500.19;6204146;28;20233;-68
2024/01/29 06:58:41;;;;;;;3.70;3.40;;;;;;;3.42;100.00;102493.16;6206402;28;20234;-68
2024/01/29 07:02:04;;;;;;;4.97;2.60;;;;;;;3.41;100.00;102491.41;6191637;28;20237;-67
2024/01/29 07:05:24;;;;;;;3.23;2.50;;;;;;;3.41;100.00;102499.41;6188818;28;20217;-67
2024/01/29 07:08:49;;;;;;;2.40;2.20;;;;;;;3.41;100.00;102495.88;6201524;28;20508;-68
2024/01/29 07:12:10;;;;;;;6.57;4.10;;;;;;;3.35;100.00;102496.97;6193993;28;20606;-67
2024/01/29 07:15:31;;;;;;;5.27;2.50;;;;;;;3.34;100.00;102505.84;6191204;28;20229;-67
2024/01/29 07:18:52;;;;;;;6.03;3.10;;;;;;;3.77;100.00;102499.97;6193828;28;20654;-67
2024/01/29 07:22:18;;;;;;;6.67;3.17;;;;;;;3.44;100.00;102512.66;6185612;28;20682;-67
2024/01/29 07:25:40;;;;;;;3.93;2.57;;;;;;;3.45;100.00;102506.38;6184470;28;20252;-69
2024/01/29 07:29:01;;;;;;;3.70;2.60;;;;;;;3.41;100.00;102506.53;6193031;28;20226;-69
2024/01/29 07:32:22;;;;;;;5.93;3.27;;;;;;;3.63;100.00;102504.91;6172017;28;20233;-69
2024/01/29 07:35:43;;;;;;;7.17;3.77;;;;;;;3.86;100.00;102507.63;6184619;28;20229;-68
2024/01/29 07:39:04;;;;;;;6.50;3.73;;;;;;;3.89;100.00;102518.22;6207554;28;20241;-70
2024/01/29 07:42:27;;;;;;;5.00;3.30;;;;;;;3.66;100.00;102524.34;6194266;28;20236;-69
2024/01/29 07:45:48;;;;;;;5.17;3.07;;;;;;;3.70;100.00;102517.97;6189252;28;20233;-69
2024/01/29 07:49:10;;;;;;;7.10;2.97;;;;;;;3.73;100.00;102519.66;6199632;28;20519;-68
2024/01/29 07:52:31;;;;;;;4.00;3.37;;;;;;;3.79;100.00;102530.13;6208355;28;20323;-67
2024/01/29 07:55:52;;;;;;;9.27;3.50;;;;;;;3.87;100.00;102525.38;6207262;28;20236;-68
2024/01/29 07:59:14;;;;;;;4.23;3.10;;;;;;;4.05;100.00;102530.06;6205546;28;20237;-68
2024/01/29 08:02:35;;;;;;;3.50;2.80;;;;;;;3.99;100.00;102538.28;6190174;28;20604;-69
2024/01/29 08:05:57;;;;;;;3.43;2.50;;;;;;;4.02;100.00;102538.19;6193174;28;20217;-70
2024/01/29 08:09:18;;;;;;;5.63;3.10;;;;;;;4.30;100.00;102549.63;6203842;28;20615;-70
2024/01/29 08:12:39;;;;;;;4.50;3.13;;;;;;;4.45;100.00;102546.41;6196272;28;20225;-69
2024/01/29 08:16:01;;;;;;;5.97;2.70;;;;;;;4.57;100.00;102542.41;6191422;28;20616;-70
2024/01/29 08:19:22;;;;;;;5.97;3.27;;;;;;;4.55;100.00;102546.91;6196593;28;20245;-70
2024/01/29 08:22:43;;;;;;;4.27;3.30;;;;;;;4.61;100.00;102546.72;6196664;28;20233;-71
2024/01/29 08:26:04;;;;;;;5.73;2.67;;;;;;;4.52;100.00;102547.94;6207124;28;20776;-70
2024/01/29 08:29:25;;;;;;;3.43;2.67;;;;;;;4.64;100.00;102538.56;6209360;28;21062;-71
2024/01/29 08:32:47;;;;;;;7.23;3.80;;;;;;;4.71;100.00;102540.09;6195502;28;20241;-71
2024/01/29 08:36:08;;;;;;;5.70;3.27;;;;;;;4.80;100.00;102540.59;6201250;28;20541;-71
2024/01/29 08:39:30;;;;;;;7.13;3.33;;;;;;;4.94;100.00;102533.88;6207527;28;20914;-71
2024/01/29 08:42:50;;;;;;;5.33;3.20;;;;;;;5.24;100.00;102532.66;6201423;28;20232;-71
2024/01/29 08:46:11;;;;;;;4.23;3.50;;;;;;;6.05;100.00;102533.72;6176851;28;20233;-71
2024/01/29 08:49:33;;;;;;;4.03;2.50;;;;;;;8.25;100.00;102522.06;6209896;28;21697;-69
2024/01/29 08:52:55;;;;;;;4.67;3.47;;;;;;;10.25;93.97;102520.44;6210671;28;20523;-70
2024/01/29 08:56:16;;;;;;;6.77;2.50;;;;;;;10.16;88.25;102520.97;6197248;28;20595;-71
2024/01/29 08:59:38;;;;;;;6.47;3.17;;;;;;;11.43;81.94;102520.94;6209337;28;20244;-72
2024/01/29 09:02:59;;;;;;;5.73;2.80;;;;;;;12.65;73.71;102528.66;6206135;28;20421;-69
2024/01/29 09:06:21;;;;;;;4.43;3.53;;;;;;;11.35;68.98;102524.13;6205845;28;20236;-72
2024/01/29 09:09:43;;;;;;;3.83;3.17;;;;;;;11.65;69.31;102519.41;6203481;28;20229;-70
2024/01/29 09:13:04;;;;;;;3.30;2.77;;;;;;;10.48;70.51;102522.56;6190053;28;20237;-70
2024/01/29 09:16:25;;;;;;;5.57;2.77;;;;;;;10.50;70.84;102527.88;6191748;28;20228;-69
2024/01/29 09:19:47;;;;;;;6.83;4.03;;;;;;;13.37;63.28;102522.50;6203684;28;20233;-70
2024/01/29 09:23:09;;;;;;;6.67;3.30;;;;;;;13.85;56.02;102509.81;6197305;28;20312;-68
2024/01/29 09:26:30;;;;;;;4.40;2.20;;;;;;;14.55;52.82;102519.63;6212271;28;20594;-69
2024/01/29 09:29:51;;;;;;;3.20;2.23;;;;;;;14.15;51.47;102516.44;6205456;28;20229;-70
2024/01/29 09:33:11;;;;;;;4.20;2.38;;;;;;;14.76;52.30;102525.19;6197569;28;20517;-71
2024/01/29 09:36:32;;;;;;;2.65;2.45;;;;;;;15.25;47.57;102522.94;6191465;28;20233;-69
2024/01/29 09:39:55;;;;;;;2.38;1.83;;;;;;;16.35;44.30;102520.81;6201536;28;20233;-70
2024/01/29 09:43:17;;;;;;;3.00;2.03;;;;;;;16.59;43.50;102527.75;6190204;28;20225;-69
2024/01/29 09:46:40;;;;;;;2.22;2.13;;;;;;;16.07;41.66;102533.22;6179049;28;20472;-70
2024/01/29 09:50:02;;;;;;;5.72;1.98;;;;;;;17.58;40.50;102539.59;6194657;28;20225;-70
2024/01/29 09:53:24;;;;;;;3.95;2.50;;;;;;;16.50;39.82;102550.31;6176552;28;20604;-70
2024/01/29 09:56:46;;;;;;;6.07;2.40;;;;;;;17.26;40.36;102552.56;6187687;28;20225;-70
2024/01/29 10:00:11;;;;;;;2.63;1.88;;;;;;;17.91;38.67;102551.16;6193310;28;20241;-70
2024/01/29 10:03:37;;;;;;;4.57;2.20;;;;;;;17.36;38.87;102552.59;6182626;28;20237;-70
2024/01/29 10:06:58;;;;;;;11.07;5.70;;;;;;;16.86;37.82;102559.84;6185444;28;20237;-70
2024/01/29 10:10:19;;;;;;;4.88;2.28;;;;;;;18.47;37.48;102563.09;6441245;23;20238;-71
2024/01/29 10:13:42;;;;;;;5.47;2.00;;;;;;;19.51;35.90;102557.41;6167044;28;20226;-70
2024/01/29 10:17:03;;;;;;;4.10;2.40;;;;;;;19.98;34.22;102569.91;6162039;28;20238;-70
2024/01/29 10:20:24;;;;;;;3.67;2.80;;;;;;;20.32;34.03;102561.84;6165792;28;20260;-70
2024/01/29 10:23:54;;;;;;;3.10;2.30;;;;;;;20.73;32.94;102563.91;6159484;28;20225;-70
2024/01/29 10:27:15;;;;;;;5.65;2.80;;;;;;;21.23;32.47;102566.78;6162116;28;20751;-70
2024/01/29 10:30:39;;;;;;;4.32;1.98;;;;;;;22.48;31.03;102568.47;6168522;28;20254;-70
2024/01/29 10:34:00;;;;;;;2.90;2.03;;;;;;;20.68;31.73;102567.13;6170055;28;20301;-71
2024/01/29 10:37:22;;;;;;;4.28;2.28;;;;;;;20.11;32.36;102564.88;6152042;28;20333;-70
2024/01/29 10:40:45;;;;;;;6.15;2.28;;;;;;;20.10;33.12;102570.53;6157831;28;20280;-70
2024/01/29 10:44:06;;;;;;;5.43;3.08;;;;;;;21.13;32.27;102569.63;6171282;28;20226;-71
2024/01/29 10:47:31;;;;;;;3.20;2.90;;;;;;;18.93;34.14;102568.59;6167785;28;20234;-71
2024/01/29 10:50:52;;;;;;;3.70;2.25;;;;;;;20.68;32.84;102569.00;6170946;28;20253;-71
2024/01/29 10:54:14;;;;;;;3.88;2.42;;;;;;;19.88;31.98;102575.44;6181592;28;20261;-71
2024/01/29 10:57:36;;;;;;;3.13;2.55;;;;;;;22.06;31.76;102574.13;6171775;28;20603;-71
2024/01/29 11:00:58;;;;;;;4.55;2.17;;;;;;;21.84;31.06;102569.28;6165019;28;20332;-70
2024/01/29 11:04:21;;;;;;;3.90;2.25;;;;;;;20.17;32.39;102566.16;6160899;28;20229;-70
2024/01/29 11:07:44;;;;;;;3.78;1.70;;;;;;;21.40;31.31;102555.69;6157085;28;20233;-71
2024/01/29 11:11:06;;;;;;;4.18;2.10;;;;;;;21.01;31.55;102550.84;6162564;28;20242;-71
2024/01/29 11:14:27;;;;;;;5.88;2.75;;;;;;;20.66;33.66;102552.72;6164947;28;20227;-71
2024/01/29 11:17:48;;;;;;;2.15;1.95;;;;;;;20.20;33.99;102555.78;6154004;28;20671;-71
2024/01/29 11:21:14;;;;;;;2.30;2.05;;;;;;;20.35;33.16;102558.81;6157481;28;20234;-72
2024/01/29 11:24:35;;;;;;;3.65;2.70;;;;;;;20.54;32.94;102551.25;6162397;28;20265;-71
2024/01/29 11:27:57;;;;;;;4.18;2.28;;;;;;;20.03;33.80;102556.59;6151821;28;20230;-69
2024/01/29 11:31:18;;;;;;;3.67;2.78;;;;;;;20.40;34.09;102551.81;6151005;28;20234;-67
2024/01/29 11:34:40;;;;;;;5.50;2.33;;;;;;;20.75;33.66;102563.72;6161017;28;20298;-70
2024/01/29 11:38:07;;;;;;;3.63;2.55;;;;;;;21.26;33.12;102564.56;6150415;28;20283;-70
2024/01/29 11:41:28;;;;;;;3.55;2.67;;;;;;;21.45;33.43;102560.69;6154025;28;20297;-70
2024/01/29 11:44:50;;;;;;;3.17;2.90;;;;;;;20.53;33.86;102563.22;6167059;28;20242;-70
2024/01/29 11:48:12;;;;;;;3.58;2.47;;;;;;;20.98;33.73;102562.16;6156890;28;20246;-69
2024/01/29 11:51:34;;;;;;;8.88;7.97;;;;;;;21.88;32.57;102559.69;6154046;28;20573;-70
2024/01/29 11:54:56;;;;;;;8.30;5.03;;;;;;;20.94;32.64;102567.13;6163356;28;20275;-69
2024/01/29 11:58:18;;;;;;;2.42;2.22;;;;;;;20.95;32.02;102567.97;6167421;28;20230;-70
2024/01/29 12:01:39;;;;;;;4.18;2.38;;;;;;;20.53;34.32;102565.09;6157711;28;20258;-70
2024/01/29 12:05:00;;;;;;;5.10;2.47;;;;;;;20.41;34.09;102559.03;6166849;28;20227;-70
2024/01/29 12:08:26;;;;;;;2.30;2.08;;;;;;;20.68;34.26;102552.53;6174165;28;20622;-70
2024/01/29 12:11:48;;;;;;;3.88;2.55;;;;;;;19.44;37.01;102559.03;6159918;28;20324;-70
2024/01/29 12:15:11;;;;;;;3.17;2.75;;;;;;;17.75;41.43;102561.78;6161321;28;20234;-69
2024/01/29 12:18:33;;;;;;;4.28;3.08;;;;;;;17.89;41.98;102564.06;6157549;28;20313;-70
2024/01/29 12:21:54;;;;;;;5.78;3.08;;;;;;;17.92;41.58;102551.00;6159998;28;20237;-69
2024/01/29 12:25:15;;;;;;;3.85;3.08;;;;;;;17.40;43.35;102549.44;6173074;28;20631;-69
2024/01/29 12:28:37;;;;;;;3.60;2.95;;;;;;;18.52;39.89;102554.47;6175018;28;20233;-70
2024/01/29 12:32:07;;;;;;;4.57;3.03;;;;;;;16.31;46.18;102557.47;6162828;28;20261;-70
2024/01/29 12:35:30;;;;;;;2.85;2.60;;;;;;;17.85;43.60;102544.41;6169281;28;20230;-69
2024/01/29 12:38:53;;;;;;;3.22;2.92;;;;;;;17.60;42.86;102539.50;6173703;28;20249;-69
2024/01/29 12:42:15;;;;;;;4.00;2.80;;;;;;;19.40;40.03;102535.75;6168393;28;20245;-70
2024/01/29 12:45:38;;;;;;;2.80;2.50;;;;;;;17.44;46.87;102552.75;6145041;28;20793;-69
2024/01/29 12:49:02;;;;;;;3.92;2.97;;;;;;;16.87;46.34;102550.69;6177901;28;20221;-70
2024/01/29 12:52:23;;;;;;;4.40;3.33;;;;;;;17.15;48.89;102538.16;6163790;28;20237;-70
2024/01/29 12:55:44;;;;;;;5.35;3.15;;;;;;;15.85;51.43;102539.59;6169778;28;20233;-70
2024/01/29 12:59:06;;;;;;;2.67;2.03;;;;;;;17.25;48.79;102542.66;6165139;28;20241;-70
2024/01/29 13:02:28;;;;;;;4.47;2.58;;;;;;;15.41;53.64;102539.72;6155231;28;22949;-70
2024/01/29 13:05:52;;;;;;;4.82;3.33;;;;;;;16.24;54.11;102535.38;6168880;28;20237;-70
2024/01/29 13:09:13;;;;;;;6.88;3.17;;;;;;;15.44;53.37;102534.06;6177837;28;20229;-70
2024/01/29 13:12:34;;;;;;;5.07;3.00;;;;;;;14.13;60.46;102550.06;6175049;28;20234;-70
2024/01/29 13:15:55;;;;;;;8.63;3.27;;;;;;;14.71;61.28;102547.28;6167417;28;20502;-71
2024/01/29 13:19:18;;;;;;;3.90;3.20;;;;;;;13.72;63.44;102550.53;6179543;28;20234;-70
2024/01/29 13:22:39;;;;;;;4.80;3.13;;;;;;;13.57;63.71;102546.25;6170260;28;20627;-71
2024/01/29 13:26:00;;;;;;;6.57;3.57;;;;;;;13.96;65.32;102559.50;6165287;28;20553;-71
2024/01/29 13:29:21;;;;;;;4.03;3.60;;;;;;;14.08;65.38;102547.72;6147872;28;20226;-71
2024/01/29 13:32:41;;;;;;;3.33;2.67;;;;;;;13.35;66.06;102549.69;6160913;28;20222;-71
2024/01/29 13:36:04;;;;;;;4.83;3.50;;;;;;;13.37;67.00;102565.84;6150297;28;20812;-72
2024/01/29 13:39:25;;;;;;;6.73;2.87;;;;;;;13.91;65.68;102547.28;6173209;28;21080;-70
2024/01/29 13:42:46;;;;;;;5.53;2.90;;;;;;;13.61;66.18;102556.75;6163971;28;20325;-69
2024/01/29 13:46:07;;;;;;;4.60;3.20;;;;;;;13.47;66.17;102558.75;6161827;28;20230;-68
2024/01/29 13:49:28;;;;;;;5.33;4.03;;;;;;;13.12;66.13;102555.91;6177363;28;20218;-69
2024/01/29 13:52:50;;;;;;;4.47;3.03;;;;;;;12.71;68.10;102552.56;6169902;28;20230;-71
2024/01/29 13:56:11;;;;;;;4.43;3.87;;;;;;;13.20;67.98;102560.78;6176053;28;20296;-69
2024/01/29 13:59:32;;;;;;;6.33;3.50;;;;;;;12.88;70.59;102564.91;6176412;28;20230;-70
2024/01/29 14:02:53;;;;;;;3.57;3.20;;;;;;;12.23;71.92;102564.09;6162511;28;20234;-70
2024/01/29 14:06:14;;;;;;;11.13;3.80;;;;;;;12.01;74.32;102557.47;6165426;28;20230;-69
2024/01/29 14:09:37;;;;;;;4.97;3.57;;;;;;;12.27;73.95;102561.09;6176184;28;20234;-69
2024/01/29 14:12:57;;;;;;;4.60;3.40;;;;;;;12.36;75.47;102560.47;6171829;28;20229;-70
2024/01/29 14:16:20;;;;;;;4.07;3.67;;;;;;;12.08;75.39;102567.88;6156511;28;20317;-70
2024/01/29 14:19:41;;;;;;;6.77;4.40;;;;;;;12.03;76.03;102562.78;6160612;28;20238;-70
2024/01/29 14:23:05;;;;;;;3.67;3.13;;;;;;;12.39;75.99;102562.09;6159632;28;20230;-70
2024/01/29 14:26:27;;;;;;;4.67;3.20;;;;;;;12.40;76.00;102570.09;6140484;28;20245;-70
2024/01/29 14:29:49;;;;;;;6.40;3.80;;;;;;;12.20;76.79;102558.94;6165514;28;20233;-70
2024/01/29 14:33:10;;;;;;;4.27;3.43;;;;;;;11.83;78.71;102557.84;6155203;28;20229;-69
2024/01/29 14:36:31;;;;;;;4.57;3.47;;;;;;;11.91;79.00;102569.03;6148681;28;21847;-71
2024/01/29 14:39:52;;;;;;;4.20;3.30;;;;;;;11.65;80.95;102565.31;6156580;28;20754;-70
2024/01/29 14:43:14;;;;;;;3.83;3.43;;;;;;;11.53;82.32;102565.25;6166466;28;20230;-72
2024/01/29 14:46:35;;;;;;;7.20;3.73;;;;;;;11.58;82.74;102571.22;6157275;28;20234;-71
2024/01/29 14:49:57;;;;;;;4.67;3.67;;;;;;;11.15;84.37;102576.72;6167065;28;20230;-69
2024/01/29 14:53:19;;;;;;;4.13;3.67;;;;;;;11.10;85.78;102578.84;6167346;28;20627;-70
2024/01/29 14:56:40;;;;;;;5.77;3.80;;;;;;;11.11;85.69;102583.28;6165089;28;20257;-69
2024/01/29 15:00:02;;;;;;;4.07;3.77;;;;;;;11.10;86.51;102583.34;6177433;28;20234;-70
2024/01/29 15:03:23;;;;;;;5.17;3.63;;;;;;;10.98;88.34;102587.72;6133037;28;20253;-69
2024/01/29 15:06:44;;;;;;;6.60;3.60;;;;;;;11.03;87.85;102590.13;6155876;28;20237;-69
2024/01/29 15:10:06;;;;;;;4.93;3.10;;;;;;;10.90;89.29;102602.66;6152270;28;20242;-70
2024/01/29 15:13:29;;;;;;;3.37;3.07;;;;;;;10.72;91.09;102604.66;6145955;28;20286;-70
2024/01/29 15:17:00;;;;;;;4.10;3.70;;;;;;;10.75;91.95;102604.47;6119319;28;20234;-70
2024/01/29 15:20:22;;;;;;;6.40;5.63;;;;;;;10.64;93.01;102606.09;6151302;28;20233;-69
2024/01/29 15:23:44;;;;;;;4.43;3.37;;;;;;;10.65;93.35;102602.44;6159249;28;20497;-69
2024/01/29 15:27:05;;;;;;;4.47;3.30;;;;;;;10.70;94.02;102606.56;6152158;28;20324;-71
2024/01/29 15:30:26;;;;;;;4.87;4.40;;;;;;;10.54;95.71;102596.81;6156283;28;20226;-69
2024/01/29 15:33:49;;;;;;;5.37;3.80;;;;;;;10.63;95.91;102602.53;6165261;28;20252;-69
2024/01/29 15:37:10;;;;;;;4.70;4.03;;;;;;;10.53;96.81;102603.19;6146614;28;20233;-69